sensor_id;sensor_type;location;lat;lon;timestamp;temperature;humidity
36458;DHT22;22480;50.546;12.292;2023-02-22T00:01:15;7.00;99.90
36458;DHT22;22480;50.546;12.292;2023-02-22T00:04:00;7.00;99.90
36458;DHT22;22480;50.546;12.292;2023-02-22T00:06:27;7.00;99.90
36458;DHT22;22480;50.546;12.292;2023-02-22T00:08:53;7.00;99.90
36458;DHT22;22480;50.546;12.292;2023-02-22T00:11:20;7.00;99.90
36458;DHT22;22480;50.546;12.292;2023-02-22T00:13:46;7.00;99.90
36458;DHT22;22480;50.546;12.292;2023-02-22T00:16:16;6.90;99.90
36458;DHT22;22480;50.546;12.292;2023-02-22T00:18:42;7.00;99.90
36458;DHT22;22480;50.546;12.292;2023-02-22T00:21:10;7.00;99.90
36458;DHT22;22480;50.546;12.292;2023-02-22T00:23:40;6.90;99.90
36458;DHT22;22480;50.546;12.292;2023-02-22T00:26:08;6.90;99.90
36458;DHT22;22480;50.546;12.292;2023-02-22T00:28:36;6.90;99.90
36458;DHT22;22480;50.546;12.292;2023-02-22T00:31:03;6.90;99.90
36458;DHT22;22480;50.546;12.292;2023-02-22T00:33:31;6.90;99.90
36458;DHT22;22480;50.546;12.292;2023-02-22T00:35:58;6.90;99.90
36458;DHT22;22480;50.546;12.292;2023-02-22T00:38:25;7.00;99.90
36458;DHT22;22480;50.546;12.292;2023-02-22T00:40:51;7.00;99.90
36458;DHT22;22480;50.546;12.292;2023-02-22T00:43:17;6.90;99.90
36458;DHT22;22480;50.546;12.292;2023-02-22T00:45:42;6.90;99.90
36458;DHT22;22480;50.546;12.292;2023-02-22T00:48:09;6.80;99.90
36458;DHT22;22480;50.546;12.292;2023-02-22T00:50:35;6.90;99.90
36458;DHT22;22480;50.546;12.292;2023-02-22T00:53:02;6.90;99.90
36458;DHT22;22480;50.546;12.292;2023-02-22T00:55:31;6.90;99.90
36458;DHT22;22480;50.546;12.292;2023-02-22T00:57:58;6.90;99.90
36458;DHT22;22480;50.546;12.292;2023-02-22T01:00:47;6.90;99.90
36458;DHT22;22480;50.546;12.292;2023-02-22T01:03:16;6.90;99.90
36458;DHT22;22480;50.546;12.292;2023-02-22T01:05:42;6.90;99.90
36458;DHT22;22480;50.546;12.292;2023-02-22T01:08:10;6.90;99.90
36458;DHT22;22480;50.546;12.292;2023-02-22T01:10:37;6.90;99.90
36458;DHT22;22480;50.546;12.292;2023-02-22T01:13:05;6.90;99.90
36458;DHT22;22480;50.546;12.292;2023-02-22T01:15:34;6.90;99.90
36458;DHT22;22480;50.546;12.292;2023-02-22T01:18:00;6.90;99.90
36458;DHT22;22480;50.546;12.292;2023-02-22T01:20:27;6.80;99.90
36458;DHT22;22480;50.546;12.292;2023-02-22T01:22:55;6.90;99.90
36458;DHT22;22480;50.546;12.292;2023-02-22T01:25:24;6.90;99.90
36458;DHT22;22480;50.546;12.292;2023-02-22T01:27:50;6.90;99.90
36458;DHT22;22480;50.546;12.292;2023-02-22T01:30:21;6.90;99.90
36458;DHT22;22480;50.546;12.292;2023-02-22T01:32:47;6.90;99.90
36458;DHT22;22480;50.546;12.292;2023-02-22T01:35:15;6.90;99.90
36458;DHT22;22480;50.546;12.292;2023-02-22T01:37:44;6.80;99.90
36458;DHT22;22480;50.546;12.292;2023-02-22T01:40:16;6.80;99.90
36458;DHT22;22480;50.546;12.292;2023-02-22T01:42:43;6.90;99.90
36458;DHT22;22480;50.546;12.292;2023-02-22T01:48:00;6.90;99.90
36458;DHT22;22480;50.546;12.292;2023-02-22T01:50:28;6.90;99.90
36458;DHT22;22480;50.546;12.292;2023-02-22T01:52:55;6.80;99.90
36458;DHT22;22480;50.546;12.292;2023-02-22T01:55:20;6.90;99.90
36458;DHT22;22480;50.546;12.292;2023-02-22T01:57:46;6.90;99.90
36458;DHT22;22480;50.546;12.292;2023-02-22T02:00:15;6.80;99.90
36458;DHT22;22480;50.546;12.292;2023-02-22T02:02:51;6.80;99.90
36458;DHT22;22480;50.546;12.292;2023-02-22T02:05:21;6.80;99.90
36458;DHT22;22480;50.546;12.292;2023-02-22T02:07:50;6.90;99.90
36458;DHT22;22480;50.546;12.292;2023-02-22T02:10:19;6.90;99.90
36458;DHT22;22480;50.546;12.292;2023-02-22T02:12:48;6.90;99.90
36458;DHT22;22480;50.546;12.292;2023-02-22T02:17:52;6.90;99.90
36458;DHT22;22480;50.546;12.292;2023-02-22T02:22:57;6.90;99.90
36458;DHT22;22480;50.546;12.292;2023-02-22T02:28:33;6.90;99.90
36458;DHT22;22480;50.546;12.292;2023-02-22T02:34:46;6.90;99.90
36458;DHT22;22480;50.546;12.292;2023-02-22T02:43:03;6.80;99.90
36458;DHT22;22480;50.546;12.292;2023-02-22T02:45:44;6.80;99.90
36458;DHT22;22480;50.546;12.292;2023-02-22T02:48:11;6.80;99.90
36458;DHT22;22480;50.546;12.292;2023-02-22T02:50:46;6.80;99.90
36458;DHT22;22480;50.546;12.292;2023-02-22T02:53:14;6.80;99.90
36458;DHT22;22480;50.546;12.292;2023-02-22T02:55:42;6.80;99.90
36458;DHT22;22480;50.546;12.292;2023-02-22T02:58:10;6.70;99.90
36458;DHT22;22480;50.546;12.292;2023-02-22T03:00:41;6.80;99.90
36458;DHT22;22480;50.546;12.292;2023-02-22T03:03:27;6.70;99.90
36458;DHT22;22480;50.546;12.292;2023-02-22T03:22:54;6.60;99.90
36458;DHT22;22480;50.546;12.292;2023-02-22T03:25:39;6.70;99.90
36458;DHT22;22480;50.546;12.292;2023-02-22T03:28:09;6.70;99.90
36458;DHT22;22480;50.546;12.292;2023-02-22T03:30:42;6.70;99.90
36458;DHT22;22480;50.546;12.292;2023-02-22T03:33:19;6.70;99.90
36458;DHT22;22480;50.546;12.292;2023-02-22T03:35:55;6.70;99.90
36458;DHT22;22480;50.546;12.292;2023-02-22T03:38:27;6.70;99.90
36458;DHT22;22480;50.546;12.292;2023-02-22T03:40:58;6.70;99.90
36458;DHT22;22480;50.546;12.292;2023-02-22T03:43:28;6.80;99.90
36458;DHT22;22480;50.546;12.292;2023-02-22T03:45:59;6.80;99.90
36458;DHT22;22480;50.546;12.292;2023-02-22T03:51:31;6.80;99.90
36458;DHT22;22480;50.546;12.292;2023-02-22T03:53:59;6.70;99.90
36458;DHT22;22480;50.546;12.292;2023-02-22T03:56:40;6.70;99.90
36458;DHT22;22480;50.546;12.292;2023-02-22T03:59:12;6.80;99.90
36458;DHT22;22480;50.546;12.292;2023-02-22T04:01:38;6.80;99.90
36458;DHT22;22480;50.546;12.292;2023-02-22T04:04:04;6.80;99.90
36458;DHT22;22480;50.546;12.292;2023-02-22T04:06:30;6.80;99.90
36458;DHT22;22480;50.546;12.292;2023-02-22T04:08:57;6.80;99.90
36458;DHT22;22480;50.546;12.292;2023-02-22T04:11:24;6.80;99.90
36458;DHT22;22480;50.546;12.292;2023-02-22T04:13:50;6.80;99.90
36458;DHT22;22480;50.546;12.292;2023-02-22T04:16:17;6.80;99.90
36458;DHT22;22480;50.546;12.292;2023-02-22T04:18:43;6.80;99.90
36458;DHT22;22480;50.546;12.292;2023-02-22T04:21:10;6.90;99.90
36458;DHT22;22480;50.546;12.292;2023-02-22T04:23:40;6.80;99.90
36458;DHT22;22480;50.546;12.292;2023-02-22T04:26:07;6.80;99.90
36458;DHT22;22480;50.546;12.292;2023-02-22T04:28:32;6.80;99.90
36458;DHT22;22480;50.546;12.292;2023-02-22T04:31:11;6.80;99.90
36458;DHT22;22480;50.546;12.292;2023-02-22T04:33:37;6.80;99.90
36458;DHT22;22480;50.546;12.292;2023-02-22T04:36:03;6.80;99.90
36458;DHT22;22480;50.546;12.292;2023-02-22T04:38:32;6.80;99.90
36458;DHT22;22480;50.546;12.292;2023-02-22T04:40:58;6.70;99.90
36458;DHT22;22480;50.546;12.292;2023-02-22T04:43:25;6.80;99.90
36458;DHT22;22480;50.546;12.292;2023-02-22T04:45:56;6.70;99.90
36458;DHT22;22480;50.546;12.292;2023-02-22T04:48:22;6.70;99.90
36458;DHT22;22480;50.546;12.292;2023-02-22T04:50:48;6.70;99.90
36458;DHT22;22480;50.546;12.292;2023-02-22T04:53:15;6.70;99.90
36458;DHT22;22480;50.546;12.292;2023-02-22T04:55:41;6.70;99.90
36458;DHT22;22480;50.546;12.292;2023-02-22T04:58:07;6.60;99.90
36458;DHT22;22480;50.546;12.292;2023-02-22T05:00:34;6.70;99.90
36458;DHT22;22480;50.546;12.292;2023-02-22T05:03:01;6.70;99.90
36458;DHT22;22480;50.546;12.292;2023-02-22T05:05:27;6.70;99.90
36458;DHT22;22480;50.546;12.292;2023-02-22T05:07:52;6.70;99.90
36458;DHT22;22480;50.546;12.292;2023-02-22T05:10:18;6.70;99.90
36458;DHT22;22480;50.546;12.292;2023-02-22T05:12:44;6.70;99.90
36458;DHT22;22480;50.546;12.292;2023-02-22T05:15:14;6.60;99.90
36458;DHT22;22480;50.546;12.292;2023-02-22T05:17:40;6.70;99.90
36458;DHT22;22480;50.546;12.292;2023-02-22T05:20:06;6.70;99.90
36458;DHT22;22480;50.546;12.292;2023-02-22T05:22:33;6.70;99.90
36458;DHT22;22480;50.546;12.292;2023-02-22T05:25:00;6.70;99.90
36458;DHT22;22480;50.546;12.292;2023-02-22T05:27:26;6.60;99.90
36458;DHT22;22480;50.546;12.292;2023-02-22T05:29:52;6.70;99.90
36458;DHT22;22480;50.546;12.292;2023-02-22T05:32:17;6.70;99.90
36458;DHT22;22480;50.546;12.292;2023-02-22T05:34:43;6.70;99.90
36458;DHT22;22480;50.546;12.292;2023-02-22T05:37:09;6.70;99.90
36458;DHT22;22480;50.546;12.292;2023-02-22T05:39:34;6.60;99.90
36458;DHT22;22480;50.546;12.292;2023-02-22T05:42:00;6.60;99.90
36458;DHT22;22480;50.546;12.292;2023-02-22T05:44:26;6.70;99.90
36458;DHT22;22480;50.546;12.292;2023-02-22T05:46:52;6.70;99.90
36458;DHT22;22480;50.546;12.292;2023-02-22T05:49:18;6.70;99.90
36458;DHT22;22480;50.546;12.292;2023-02-22T05:51:43;6.60;99.90
36458;DHT22;22480;50.546;12.292;2023-02-22T05:54:09;6.60;99.90
36458;DHT22;22480;50.546;12.292;2023-02-22T05:56:35;6.60;99.90
36458;DHT22;22480;50.546;12.292;2023-02-22T05:59:01;6.60;99.90
36458;DHT22;22480;50.546;12.292;2023-02-22T06:01:27;6.60;99.90
36458;DHT22;22480;50.546;12.292;2023-02-22T06:03:52;6.50;99.90
36458;DHT22;22480;50.546;12.292;2023-02-22T06:06:19;6.50;99.90
36458;DHT22;22480;50.546;12.292;2023-02-22T06:08:45;6.50;99.90
36458;DHT22;22480;50.546;12.292;2023-02-22T06:11:11;6.50;99.90
36458;DHT22;22480;50.546;12.292;2023-02-22T06:13:38;6.50;99.90
36458;DHT22;22480;50.546;12.292;2023-02-22T06:16:04;6.50;99.90
36458;DHT22;22480;50.546;12.292;2023-02-22T06:18:29;6.50;99.90
36458;DHT22;22480;50.546;12.292;2023-02-22T06:20:56;6.50;99.90
36458;DHT22;22480;50.546;12.292;2023-02-22T06:23:23;6.50;99.90
36458;DHT22;22480;50.546;12.292;2023-02-22T06:25:48;6.50;99.90
36458;DHT22;22480;50.546;12.292;2023-02-22T06:28:14;6.60;99.90
36458;DHT22;22480;50.546;12.292;2023-02-22T06:30:41;6.50;99.90
36458;DHT22;22480;50.546;12.292;2023-02-22T06:33:09;6.40;99.90
36458;DHT22;22480;50.546;12.292;2023-02-22T06:35:35;6.30;99.90
36458;DHT22;22480;50.546;12.292;2023-02-22T06:38:01;6.30;99.90
36458;DHT22;22480;50.546;12.292;2023-02-22T06:40:26;6.30;99.90
36458;DHT22;22480;50.546;12.292;2023-02-22T06:42:54;6.20;99.90
36458;DHT22;22480;50.546;12.292;2023-02-22T06:45:20;6.20;99.90
36458;DHT22;22480;50.546;12.292;2023-02-22T06:47:46;6.10;99.90
36458;DHT22;22480;50.546;12.292;2023-02-22T06:52:43;6.20;99.90
36458;DHT22;22480;50.546;12.292;2023-02-22T06:55:09;6.20;99.90
36458;DHT22;22480;50.546;12.292;2023-02-22T06:57:34;6.20;99.90
36458;DHT22;22480;50.546;12.292;2023-02-22T07:00:00;6.30;99.90
36458;DHT22;22480;50.546;12.292;2023-02-22T07:02:26;6.30;99.90
36458;DHT22;22480;50.546;12.292;2023-02-22T07:04:51;6.30;99.90
36458;DHT22;22480;50.546;12.292;2023-02-22T07:07:17;6.30;99.90
36458;DHT22;22480;50.546;12.292;2023-02-22T07:09:45;6.20;99.90
36458;DHT22;22480;50.546;12.292;2023-02-22T07:12:11;6.30;99.90
36458;DHT22;22480;50.546;12.292;2023-02-22T07:14:36;6.30;99.90
36458;DHT22;22480;50.546;12.292;2023-02-22T07:17:02;6.40;99.90
36458;DHT22;22480;50.546;12.292;2023-02-22T07:19:28;6.50;99.90
36458;DHT22;22480;50.546;12.292;2023-02-22T07:21:53;6.70;99.90
36458;DHT22;22480;50.546;12.292;2023-02-22T07:24:24;6.70;99.90
36458;DHT22;22480;50.546;12.292;2023-02-22T07:26:51;6.90;99.90
36458;DHT22;22480;50.546;12.292;2023-02-22T07:29:16;6.90;99.90
36458;DHT22;22480;50.546;12.292;2023-02-22T07:31:42;7.00;99.90
36458;DHT22;22480;50.546;12.292;2023-02-22T07:34:08;6.90;99.90
36458;DHT22;22480;50.546;12.292;2023-02-22T07:36:33;6.90;99.90
36458;DHT22;22480;50.546;12.292;2023-02-22T07:38:59;6.90;99.90
36458;DHT22;22480;50.546;12.292;2023-02-22T07:41:25;6.90;99.90
36458;DHT22;22480;50.546;12.292;2023-02-22T07:43:51;7.00;99.90
36458;DHT22;22480;50.546;12.292;2023-02-22T07:46:16;6.90;99.90
36458;DHT22;22480;50.546;12.292;2023-02-22T07:48:42;7.10;99.90
36458;DHT22;22480;50.546;12.292;2023-02-22T07:51:08;7.20;99.90
36458;DHT22;22480;50.546;12.292;2023-02-22T07:53:34;7.30;99.90
36458;DHT22;22480;50.546;12.292;2023-02-22T07:56:02;7.60;99.90
36458;DHT22;22480;50.546;12.292;2023-02-22T07:58:30;7.90;99.90
36458;DHT22;22480;50.546;12.292;2023-02-22T08:00:56;8.30;99.90
36458;DHT22;22480;50.546;12.292;2023-02-22T08:03:24;8.60;99.90
36458;DHT22;22480;50.546;12.292;2023-02-22T08:05:53;8.80;99.90
36458;DHT22;22480;50.546;12.292;2023-02-22T08:08:19;9.10;99.90
36458;DHT22;22480;50.546;12.292;2023-02-22T08:10:45;9.40;99.90
36458;DHT22;22480;50.546;12.292;2023-02-22T08:13:11;9.60;99.90
36458;DHT22;22480;50.546;12.292;2023-02-22T08:15:40;9.80;99.90
36458;DHT22;22480;50.546;12.292;2023-02-22T08:18:12;9.90;99.90
36458;DHT22;22480;50.546;12.292;2023-02-22T08:20:40;10.10;99.90
36458;DHT22;22480;50.546;12.292;2023-02-22T08:23:08;10.20;99.90
36458;DHT22;22480;50.546;12.292;2023-02-22T08:25:34;10.20;99.90
36458;DHT22;22480;50.546;12.292;2023-02-22T08:28:08;10.20;99.90
36458;DHT22;22480;50.546;12.292;2023-02-22T08:30:35;10.40;99.90
36458;DHT22;22480;50.546;12.292;2023-02-22T08:33:02;10.60;99.90
36458;DHT22;22480;50.546;12.292;2023-02-22T08:35:29;10.80;99.90
36458;DHT22;22480;50.546;12.292;2023-02-22T08:37:59;11.10;99.90
36458;DHT22;22480;50.546;12.292;2023-02-22T08:40:28;11.30;99.90
36458;DHT22;22480;50.546;12.292;2023-02-22T08:42:55;11.40;99.90
36458;DHT22;22480;50.546;12.292;2023-02-22T08:45:22;11.50;99.90
36458;DHT22;22480;50.546;12.292;2023-02-22T08:47:48;11.50;99.90
36458;DHT22;22480;50.546;12.292;2023-02-22T08:50:22;11.60;99.90
36458;DHT22;22480;50.546;12.292;2023-02-22T08:52:50;11.70;99.90
36458;DHT22;22480;50.546;12.292;2023-02-22T08:55:19;12.00;99.90
36458;DHT22;22480;50.546;12.292;2023-02-22T08:57:45;12.10;99.90
36458;DHT22;22480;50.546;12.292;2023-02-22T09:00:11;12.20;99.90
36458;DHT22;22480;50.546;12.292;2023-02-22T09:02:37;12.30;99.90
36458;DHT22;22480;50.546;12.292;2023-02-22T09:05:03;12.30;99.90
36458;DHT22;22480;50.546;12.292;2023-02-22T09:07:30;12.20;99.90
36458;DHT22;22480;50.546;12.292;2023-02-22T09:09:56;12.00;99.90
36458;DHT22;22480;50.546;12.292;2023-02-22T09:12:21;11.90;99.90
36458;DHT22;22480;50.546;12.292;2023-02-22T09:14:47;11.80;99.90
36458;DHT22;22480;50.546;12.292;2023-02-22T09:17:13;11.60;99.90
36458;DHT22;22480;50.546;12.292;2023-02-22T09:19:38;11.50;99.90
36458;DHT22;22480;50.546;12.292;2023-02-22T09:22:04;11.70;99.90
36458;DHT22;22480;50.546;12.292;2023-02-22T09:24:30;11.80;99.90
36458;DHT22;22480;50.546;12.292;2023-02-22T09:26:55;12.10;99.90
36458;DHT22;22480;50.546;12.292;2023-02-22T09:29:26;12.20;99.90
36458;DHT22;22480;50.546;12.292;2023-02-22T09:31:54;12.20;99.90
36458;DHT22;22480;50.546;12.292;2023-02-22T09:34:22;12.30;99.90
36458;DHT22;22480;50.546;12.292;2023-02-22T09:36:55;12.50;99.90
36458;DHT22;22480;50.546;12.292;2023-02-22T09:39:21;12.80;99.90
36458;DHT22;22480;50.546;12.292;2023-02-22T09:42:05;13.30;99.90
36458;DHT22;22480;50.546;12.292;2023-02-22T09:44:52;14.00;99.90
36458;DHT22;22480;50.546;12.292;2023-02-22T09:47:31;14.80;99.90
36458;DHT22;22480;50.546;12.292;2023-02-22T09:50:10;15.20;99.90
36458;DHT22;22480;50.546;12.292;2023-02-22T09:58:30;14.60;99.90
36458;DHT22;22480;50.546;12.292;2023-02-22T10:01:27;14.70;99.90
36458;DHT22;22480;50.546;12.292;2023-02-22T10:04:14;15.50;99.90
36458;DHT22;22480;50.546;12.292;2023-02-22T10:09:39;15.40;99.90
36458;DHT22;22480;50.546;12.292;2023-02-22T10:12:15;15.00;99.90
36458;DHT22;22480;50.546;12.292;2023-02-22T10:15:02;14.60;99.90
36458;DHT22;22480;50.546;12.292;2023-02-22T10:20:46;13.90;99.90
36458;DHT22;22480;50.546;12.292;2023-02-22T10:23:36;13.80;99.90
36458;DHT22;22480;50.546;12.292;2023-02-22T10:26:24;13.70;99.90
36458;DHT22;22480;50.546;12.292;2023-02-22T10:29:04;13.90;99.90
36458;DHT22;22480;50.546;12.292;2023-02-22T10:31:42;14.00;99.90
36458;DHT22;22480;50.546;12.292;2023-02-22T10:34:14;14.30;99.90
36458;DHT22;22480;50.546;12.292;2023-02-22T10:36:42;14.70;99.90
36458;DHT22;22480;50.546;12.292;2023-02-22T10:39:32;15.00;99.90
36458;DHT22;22480;50.546;12.292;2023-02-22T10:42:02;15.50;99.90
36458;DHT22;22480;50.546;12.292;2023-02-22T10:44:32;16.50;99.90
36458;DHT22;22480;50.546;12.292;2023-02-22T10:46:59;17.10;99.90
36458;DHT22;22480;50.546;12.292;2023-02-22T10:49:33;17.30;96.60
36458;DHT22;22480;50.546;12.292;2023-02-22T10:52:02;17.40;90.70
36458;DHT22;22480;50.546;12.292;2023-02-22T10:54:38;17.00;93.00
36458;DHT22;22480;50.546;12.292;2023-02-22T10:57:06;16.70;95.30
36458;DHT22;22480;50.546;12.292;2023-02-22T10:59:37;16.50;97.90
36458;DHT22;22480;50.546;12.292;2023-02-22T11:02:38;16.30;99.90
36458;DHT22;22480;50.546;12.292;2023-02-22T11:07:51;16.60;99.20
36458;DHT22;22480;50.546;12.292;2023-02-22T11:10:30;17.00;98.50
36458;DHT22;22480;50.546;12.292;2023-02-22T11:12:55;17.30;99.60
36458;DHT22;22480;50.546;12.292;2023-02-22T11:17:51;16.60;94.30
36458;DHT22;22480;50.546;12.292;2023-02-22T11:20:27;16.30;98.40
36458;DHT22;22480;50.546;12.292;2023-02-22T11:22:57;16.10;98.70
36458;DHT22;22480;50.546;12.292;2023-02-22T11:25:33;15.90;96.90
36458;DHT22;22480;50.546;12.292;2023-02-22T11:28:09;15.70;99.90
36458;DHT22;22480;50.546;12.292;2023-02-22T11:30:40;15.20;99.90
36458;DHT22;22480;50.546;12.292;2023-02-22T11:33:19;15.40;99.90
36458;DHT22;22480;50.546;12.292;2023-02-22T11:36:02;16.10;99.90
36458;DHT22;22480;50.546;12.292;2023-02-22T11:38:37;16.30;99.90
36458;DHT22;22480;50.546;12.292;2023-02-22T11:41:05;16.30;99.40
36458;DHT22;22480;50.546;12.292;2023-02-22T11:43:33;16.50;99.90
36458;DHT22;22480;50.546;12.292;2023-02-22T11:48:39;16.60;99.40
36458;DHT22;22480;50.546;12.292;2023-02-22T12:06:13;16.80;99.90
36458;DHT22;22480;50.546;12.292;2023-02-22T12:14:36;16.90;97.70
36458;DHT22;22480;50.546;12.292;2023-02-22T12:19:49;18.60;85.20
36458;DHT22;22480;50.546;12.292;2023-02-22T12:22:23;18.10;80.30
36458;DHT22;22480;50.546;12.292;2023-02-22T12:25:20;17.50;95.30
36458;DHT22;22480;50.546;12.292;2023-02-22T12:27:54;16.70;94.10
36458;DHT22;22480;50.546;12.292;2023-02-22T12:30:38;16.30;98.30
36458;DHT22;22480;50.546;12.292;2023-02-22T12:33:11;16.30;99.80
36458;DHT22;22480;50.546;12.292;2023-02-22T12:35:43;16.10;99.90
36458;DHT22;22480;50.546;12.292;2023-02-22T12:41:19;16.30;98.10
36458;DHT22;22480;50.546;12.292;2023-02-22T12:43:52;16.50;99.90
36458;DHT22;22480;50.546;12.292;2023-02-22T12:46:41;16.40;99.90
36458;DHT22;22480;50.546;12.292;2023-02-22T12:51:57;16.80;99.90
36458;DHT22;22480;50.546;12.292;2023-02-22T12:54:46;17.60;99.90
36458;DHT22;22480;50.546;12.292;2023-02-22T12:57:23;18.90;94.80
36458;DHT22;22480;50.546;12.292;2023-02-22T13:00:00;19.50;89.00
36458;DHT22;22480;50.546;12.292;2023-02-22T13:05:18;19.60;76.30
36458;DHT22;22480;50.546;12.292;2023-02-22T13:14:15;18.70;94.10
36458;DHT22;22480;50.546;12.292;2023-02-22T13:19:06;19.70;79.80
36458;DHT22;22480;50.546;12.292;2023-02-22T13:21:48;20.30;83.30
36458;DHT22;22480;50.546;12.292;2023-02-22T13:27:54;20.00;73.80
36458;DHT22;22480;50.546;12.292;2023-02-22T13:41:35;18.50;80.30
36458;DHT22;22480;50.546;12.292;2023-02-22T13:52:08;17.40;96.10
36458;DHT22;22480;50.546;12.292;2023-02-22T13:54:49;17.70;98.90
36458;DHT22;22480;50.546;12.292;2023-02-22T13:59:47;17.90;99.40
36458;DHT22;22480;50.546;12.292;2023-02-22T14:02:56;18.10;99.90
36458;DHT22;22480;50.546;12.292;2023-02-22T14:07:59;18.00;85.30
36458;DHT22;22480;50.546;12.292;2023-02-22T14:10:47;17.70;88.30
36458;DHT22;22480;50.546;12.292;2023-02-22T14:13:15;17.30;92.80
36458;DHT22;22480;50.546;12.292;2023-02-22T14:18:24;16.80;99.90
36458;DHT22;22480;50.546;12.292;2023-02-22T14:26:32;16.30;97.70
36458;DHT22;22480;50.546;12.292;2023-02-22T14:34:30;16.00;99.90
36458;DHT22;22480;50.546;12.292;2023-02-22T14:37:37;16.00;99.90
36458;DHT22;22480;50.546;12.292;2023-02-22T14:40:10;16.10;99.90
36458;DHT22;22480;50.546;12.292;2023-02-22T14:42:47;16.00;99.90
36458;DHT22;22480;50.546;12.292;2023-02-22T14:45:30;16.00;99.90
36458;DHT22;22480;50.546;12.292;2023-02-22T14:48:08;15.90;99.90
36458;DHT22;22480;50.546;12.292;2023-02-22T14:56:05;15.80;99.90
36458;DHT22;22480;50.546;12.292;2023-02-22T14:58:48;15.90;99.90
36458;DHT22;22480;50.546;12.292;2023-02-22T15:01:27;15.70;99.90
36458;DHT22;22480;50.546;12.292;2023-02-22T15:03:55;15.50;99.90
36458;DHT22;22480;50.546;12.292;2023-02-22T15:06:25;15.40;99.90
36458;DHT22;22480;50.546;12.292;2023-02-22T15:09:13;15.40;99.90
36458;DHT22;22480;50.546;12.292;2023-02-22T15:11:40;15.40;99.90
36458;DHT22;22480;50.546;12.292;2023-02-22T15:14:16;15.30;99.90
36458;DHT22;22480;50.546;12.292;2023-02-22T15:16:51;15.30;99.90
36458;DHT22;22480;50.546;12.292;2023-02-22T15:19:30;15.30;99.90
36458;DHT22;22480;50.546;12.292;2023-02-22T15:21:59;15.20;99.90
36458;DHT22;22480;50.546;12.292;2023-02-22T15:24:27;15.10;99.90
36458;DHT22;22480;50.546;12.292;2023-02-22T15:26:54;15.00;99.90
36458;DHT22;22480;50.546;12.292;2023-02-22T15:29:21;14.90;99.90
36458;DHT22;22480;50.546;12.292;2023-02-22T15:31:48;14.70;99.90
36458;DHT22;22480;50.546;12.292;2023-02-22T15:36:43;14.40;99.90
36458;DHT22;22480;50.546;12.292;2023-02-22T15:39:30;14.20;99.90
36458;DHT22;22480;50.546;12.292;2023-02-22T15:44:42;13.80;99.90
36458;DHT22;22480;50.546;12.292;2023-02-22T15:49:44;13.50;99.90
36458;DHT22;22480;50.546;12.292;2023-02-22T15:52:28;13.40;99.90
36458;DHT22;22480;50.546;12.292;2023-02-22T15:54:56;13.20;99.90
36458;DHT22;22480;50.546;12.292;2023-02-22T15:57:22;13.10;99.90
36458;DHT22;22480;50.546;12.292;2023-02-22T15:59:54;12.90;99.90
36458;DHT22;22480;50.546;12.292;2023-02-22T16:02:29;12.80;99.90
36458;DHT22;22480;50.546;12.292;2023-02-22T16:05:08;12.60;99.90
36458;DHT22;22480;50.546;12.292;2023-02-22T16:07:49;12.50;99.90
36458;DHT22;22480;50.546;12.292;2023-02-22T16:10:35;12.20;99.90
36458;DHT22;22480;50.546;12.292;2023-02-22T16:13:06;12.10;99.90
36458;DHT22;22480;50.546;12.292;2023-02-22T16:15:32;11.90;99.90
36458;DHT22;22480;50.546;12.292;2023-02-22T16:18:22;11.70;99.90
36458;DHT22;22480;50.546;12.292;2023-02-22T16:21:01;11.50;99.90
36458;DHT22;22480;50.546;12.292;2023-02-22T16:23:28;11.30;99.90
36458;DHT22;22480;50.546;12.292;2023-02-22T16:26:05;11.10;99.90
36458;DHT22;22480;50.546;12.292;2023-02-22T16:28:31;10.90;99.90
36458;DHT22;22480;50.546;12.292;2023-02-22T16:31:01;10.70;99.90
36458;DHT22;22480;50.546;12.292;2023-02-22T16:33:27;10.60;99.90
36458;DHT22;22480;50.546;12.292;2023-02-22T16:36:01;10.30;99.90
36458;DHT22;22480;50.546;12.292;2023-02-22T16:38:31;10.10;99.90
36458;DHT22;22480;50.546;12.292;2023-02-22T16:40:57;10.00;99.90
36458;DHT22;22480;50.546;12.292;2023-02-22T16:43:28;9.80;99.90
36458;DHT22;22480;50.546;12.292;2023-02-22T16:45:56;9.60;99.90
36458;DHT22;22480;50.546;12.292;2023-02-22T16:48:24;9.50;99.90
36458;DHT22;22480;50.546;12.292;2023-02-22T16:50:52;9.40;99.90
36458;DHT22;22480;50.546;12.292;2023-02-22T16:53:21;9.30;99.90
36458;DHT22;22480;50.546;12.292;2023-02-22T16:55:48;9.20;99.90
36458;DHT22;22480;50.546;12.292;2023-02-22T16:58:16;9.10;99.90
36458;DHT22;22480;50.546;12.292;2023-02-22T17:00:43;9.00;99.90
36458;DHT22;22480;50.546;12.292;2023-02-22T17:03:14;9.00;99.90
36458;DHT22;22480;50.546;12.292;2023-02-22T17:05:40;9.00;99.90
36458;DHT22;22480;50.546;12.292;2023-02-22T17:08:05;8.90;99.90
36458;DHT22;22480;50.546;12.292;2023-02-22T17:10:32;8.80;99.90
36458;DHT22;22480;50.546;12.292;2023-02-22T17:12:58;8.80;99.90
36458;DHT22;22480;50.546;12.292;2023-02-22T17:15:28;8.70;99.90
36458;DHT22;22480;50.546;12.292;2023-02-22T17:17:55;8.70;99.90
36458;DHT22;22480;50.546;12.292;2023-02-22T17:20:22;8.60;99.90
36458;DHT22;22480;50.546;12.292;2023-02-22T17:23:04;8.60;99.90
36458;DHT22;22480;50.546;12.292;2023-02-22T17:25:40;8.50;99.90
36458;DHT22;22480;50.546;12.292;2023-02-22T17:28:07;8.50;99.90
36458;DHT22;22480;50.546;12.292;2023-02-22T17:30:33;8.50;99.90
36458;DHT22;22480;50.546;12.292;2023-02-22T17:33:01;8.40;99.90
36458;DHT22;22480;50.546;12.292;2023-02-22T17:35:35;8.40;99.90
36458;DHT22;22480;50.546;12.292;2023-02-22T17:38:02;8.40;99.90
36458;DHT22;22480;50.546;12.292;2023-02-22T17:40:35;8.30;99.90
36458;DHT22;22480;50.546;12.292;2023-02-22T17:43:02;8.30;99.90
36458;DHT22;22480;50.546;12.292;2023-02-22T17:45:29;8.20;99.90
36458;DHT22;22480;50.546;12.292;2023-02-22T17:47:55;8.20;99.90
36458;DHT22;22480;50.546;12.292;2023-02-22T17:50:24;8.20;99.90
36458;DHT22;22480;50.546;12.292;2023-02-22T17:52:50;8.20;99.90
36458;DHT22;22480;50.546;12.292;2023-02-22T17:55:17;8.20;99.90
36458;DHT22;22480;50.546;12.292;2023-02-22T17:57:43;8.20;99.90
36458;DHT22;22480;50.546;12.292;2023-02-22T18:00:11;8.20;99.90
36458;DHT22;22480;50.546;12.292;2023-02-22T18:02:39;8.10;99.90
36458;DHT22;22480;50.546;12.292;2023-02-22T18:05:07;8.20;99.90
36458;DHT22;22480;50.546;12.292;2023-02-22T18:07:34;8.20;99.90
36458;DHT22;22480;50.546;12.292;2023-02-22T18:10:00;8.10;99.90
36458;DHT22;22480;50.546;12.292;2023-02-22T18:12:30;8.10;99.90
36458;DHT22;22480;50.546;12.292;2023-02-22T18:14:56;8.00;99.90
36458;DHT22;22480;50.546;12.292;2023-02-22T18:17:21;8.00;99.90
36458;DHT22;22480;50.546;12.292;2023-02-22T18:19:47;8.00;99.90
36458;DHT22;22480;50.546;12.292;2023-02-22T18:22:13;8.00;99.90